createdAt,value
2022-11-03T00:02:11.341Z,7.37
2022-11-03T00:12:16.595Z,7.38
2022-11-03T00:17:19.130Z,7.36
2022-11-03T00:27:24.420Z,7.24
2022-11-03T00:32:27.497Z,7.31
2022-11-03T00:37:30.358Z,7.25
2022-11-03T00:42:33.011Z,7.15
2022-11-03T00:47:35.414Z,7.05
2022-11-03T00:58:10.855Z,7.19
2022-11-03T01:03:13.449Z,7.21
2022-11-03T01:08:16.245Z,7.24
2022-11-03T01:18:27.736Z,7.23
2022-11-03T01:23:30.493Z,7.23
2022-11-03T01:28:33.350Z,7.19
2022-11-03T01:33:35.857Z,7.2
2022-11-03T01:48:44.283Z,7.1
2022-11-03T01:53:46.812Z,7.11
2022-11-03T02:03:52.284Z,6.97
2022-11-03T02:08:54.754Z,6.95
2022-11-03T02:13:57.466Z,7.11
2022-11-03T02:24:05.349Z,7.14
2022-11-03T02:29:08.387Z,7.16
2022-11-03T02:34:14.016Z,7.1
2022-11-03T02:39:16.689Z,7.03
2022-11-03T02:44:19.395Z,6.91
2022-11-03T02:54:24.880Z,6.92
2022-11-03T02:59:27.316Z,6.86
2022-11-03T03:14:35.373Z,6.89
2022-11-03T03:19:37.819Z,6.89
2022-11-03T03:24:40.674Z,6.91
2022-11-03T03:34:46.240Z,6.87
2022-11-03T03:39:48.748Z,6.92
2022-11-03T03:49:54.060Z,6.86
2022-11-03T03:59:59.454Z,6.66
2022-11-03T04:05:02.419Z,6.68
2022-11-03T04:25:13.476Z,6.71
2022-11-03T04:30:15.865Z,6.81
2022-11-03T04:35:18.496Z,6.88
2022-11-03T04:40:21.095Z,6.9
2022-11-03T04:45:23.936Z,6.96
2022-11-03T04:50:26.417Z,6.82
2022-11-03T04:55:31.756Z,6.84
2022-11-03T05:00:34.357Z,6.82
2022-11-03T05:10:42.485Z,6.91
2022-11-03T05:30:53.326Z,7
2022-11-03T05:35:55.790Z,7.06
2022-11-03T05:46:01.488Z,7.11
2022-11-03T05:51:07.412Z,7.15
2022-11-03T05:56:09.921Z,7.03
2022-11-03T06:01:12.730Z,7.05
2022-11-03T06:06:15.664Z,7.16
2022-11-03T06:11:21.176Z,7.09
2022-11-03T06:21:26.705Z,7.02
2022-11-03T06:26:29.179Z,7.02
2022-11-03T06:31:31.817Z,7
2022-11-03T06:36:34.494Z,7.06
2022-11-03T06:46:42.532Z,7.15
2022-11-03T06:56:48.567Z,7.4
2022-11-03T07:01:51.487Z,7.4
2022-11-03T07:06:53.973Z,7.58
2022-11-03T07:16:59.117Z,8.22
2022-11-03T07:22:01.787Z,8.71
2022-11-03T07:27:04.692Z,9.11
2022-11-03T07:32:07.496Z,9.33
2022-11-03T07:42:12.498Z,9.67
2022-11-03T07:47:15.117Z,10.15
2022-11-03T07:52:17.899Z,10.39
2022-11-03T07:57:20.521Z,10.49
2022-11-03T08:02:23.369Z,10.32
2022-11-03T08:07:26.272Z,10.21
2022-11-03T08:17:31.544Z,10.02
2022-11-03T08:22:34.218Z,10.32
2022-11-03T08:27:36.771Z,10.5
2022-11-03T08:32:39.569Z,10.51
2022-11-03T08:42:45.216Z,11.07
2022-11-03T08:52:53.693Z,11.24
2022-11-03T08:57:56.453Z,11.32
2022-11-03T09:13:07.550Z,11.78
2022-11-03T09:18:10.077Z,12.1
2022-11-03T09:23:12.609Z,12.19
2022-11-03T09:28:18.076Z,12.52
2022-11-03T09:33:20.651Z,12.48
2022-11-03T09:38:23.418Z,12.6
2022-11-03T09:58:37.062Z,13.13
2022-11-03T10:08:42.838Z,13.6
2022-11-03T10:13:45.837Z,13.93
2022-11-03T10:23:54.343Z,13.7
2022-11-03T10:28:56.888Z,13.82
2022-11-03T10:33:59.554Z,13.73
2022-11-03T10:39:02.054Z,14
2022-11-03T10:44:04.957Z,14.17
2022-11-03T10:54:10.515Z,13.82
2022-11-03T11:04:18.867Z,14.05
2022-11-03T11:09:21.343Z,14.08
2022-11-03T11:14:23.820Z,14
2022-11-03T11:19:26.473Z,13.9
2022-11-03T11:24:28.964Z,13.77
2022-11-03T11:34:40.123Z,13.79
2022-11-03T11:39:42.743Z,13.84
2022-11-03T11:44:48.638Z,13.89
2022-11-03T11:49:51.227Z,14.06
2022-11-03T11:54:56.807Z,14.08
2022-11-03T11:59:59.515Z,13.83
2022-11-03T12:05:02.363Z,13.89
2022-11-03T12:10:08.014Z,13.84
2022-11-03T12:15:15.904Z,13.9
2022-11-03T12:20:39.875Z,14.09
2022-11-03T12:30:45.440Z,14.02
2022-11-03T12:35:50.666Z,14.03
2022-11-03T12:40:53.424Z,13.86
2022-11-03T12:46:01.951Z,13.83
2022-11-03T12:56:07.550Z,14.06
2022-11-03T13:01:09.905Z,13.78
2022-11-03T13:06:30.347Z,13.94
2022-11-03T13:16:35.771Z,13.66
2022-11-03T13:21:38.429Z,13.79
2022-11-03T13:26:41.237Z,13.9
2022-11-03T13:31:43.982Z,13.92
2022-11-03T13:36:46.735Z,13.82
2022-11-03T13:41:49.432Z,13.8
2022-11-03T13:46:55.355Z,13.88
2022-11-03T13:51:58.116Z,13.71
2022-11-03T14:07:06.042Z,13.47
2022-11-03T14:12:09.006Z,13.46
2022-11-03T14:17:11.331Z,13.41
2022-11-03T14:27:16.379Z,13.37
2022-11-03T14:32:19.201Z,13.33
2022-11-03T14:37:21.852Z,13.15
2022-11-03T14:52:29.794Z,12.94
2022-11-03T14:57:32.433Z,12.92
2022-11-03T15:07:37.997Z,12.78
2022-11-03T15:12:40.656Z,12.8
2022-11-03T15:17:43.600Z,12.7
2022-11-03T15:27:49.171Z,12.58
2022-11-03T15:32:51.866Z,12.48
2022-11-03T15:37:54.572Z,12.39
2022-11-03T15:53:02.916Z,12.28
2022-11-03T16:03:08.349Z,12.29
2022-11-03T16:13:13.536Z,12.28
2022-11-03T16:18:16.122Z,12.29
2022-11-03T16:23:18.779Z,12.27
2022-11-03T16:28:21.344Z,12.26
2022-11-03T16:33:23.988Z,12.2
2022-11-03T16:38:29.621Z,12.14
2022-11-03T16:43:32.275Z,12.12
2022-11-03T16:48:34.860Z,12.07
2022-11-03T16:58:40.089Z,12.03
2022-11-03T17:03:42.802Z,12.02
2022-11-03T17:08:53.758Z,11.99
2022-11-03T17:13:48.292Z,11.98
2022-11-03T17:18:50.850Z,11.99
2022-11-03T17:23:53.557Z,11.99
2022-11-03T17:28:56.058Z,12
2022-11-03T17:33:59.057Z,12
2022-11-03T17:39:01.640Z,11.99
2022-11-03T17:44:04.511Z,11.97
2022-11-03T17:49:06.996Z,11.94
2022-11-03T17:59:12.128Z,11.97
2022-11-03T18:09:17.274Z,11.93
2022-11-03T18:14:20.097Z,11.9
2022-11-03T18:19:22.734Z,11.86
2022-11-03T18:24:25.644Z,11.83
2022-11-03T18:29:28.278Z,11.8
2022-11-03T18:34:31.299Z,11.81
2022-11-03T18:39:34.052Z,11.84
2022-11-03T18:49:39.424Z,11.83
2022-11-03T18:54:41.903Z,11.87
2022-11-03T18:59:44.517Z,11.87
2022-11-03T19:04:47.131Z,11.89
2022-11-03T19:09:49.739Z,11.87
2022-11-03T19:19:54.897Z,11.83
2022-11-03T19:24:57.827Z,11.82
2022-11-03T19:30:00.278Z,11.78
2022-11-03T19:50:10.808Z,11.56
2022-11-03T20:01:11.497Z,11.47
2022-11-03T20:06:18.192Z,11.38
2022-11-03T20:11:16.640Z,11.37
2022-11-03T20:16:19.373Z,11.31
2022-11-03T20:21:22.057Z,11.27
2022-11-03T20:26:24.569Z,11.24
2022-11-03T20:36:29.774Z,11.09
2022-11-03T20:41:32.159Z,10.98
2022-11-03T20:46:35.077Z,10.86
2022-11-03T20:51:37.617Z,10.84
2022-11-03T20:56:40.218Z,10.78
2022-11-03T21:06:45.338Z,10.57
2022-11-03T21:11:48.325Z,10.53
2022-11-03T21:16:50.891Z,10.51
2022-11-03T21:26:56.234Z,10.38
2022-11-03T21:31:58.925Z,10.36
2022-11-03T21:37:01.421Z,10.32
2022-11-03T21:42:04.012Z,10.29
2022-11-03T21:47:06.625Z,10.27
2022-11-03T21:52:12.309Z,10.27
2022-11-03T21:57:15.251Z,10.29
2022-11-03T22:02:17.787Z,10.27
2022-11-03T22:07:20.409Z,10.31
2022-11-03T22:12:23.068Z,10.38
2022-11-03T22:17:25.727Z,10.32
2022-11-03T22:22:28.343Z,10.35
2022-11-03T22:27:31.096Z,10.35
2022-11-03T22:32:33.865Z,10.33
2022-11-03T22:42:39.254Z,10.28
2022-11-03T22:47:41.787Z,10.23
2022-11-03T22:52:44.615Z,10.22
2022-11-03T22:57:47.024Z,10.24
2022-11-03T23:03:17.074Z,10.22
2022-11-03T23:08:19.912Z,10.22
2022-11-03T23:13:22.644Z,10.15
2022-11-03T23:18:25.287Z,10.09
2022-11-03T23:23:27.816Z,10.01
2022-11-03T23:28:30.553Z,9.93
2022-11-03T23:33:33.291Z,9.9
2022-11-03T23:38:38.859Z,9.9
2022-11-03T23:43:41.462Z,9.85
2022-11-03T23:53:46.792Z,9.81
2022-11-03T23:58:49.518Z,9.84
